createdAt,value
2019-01-15T00:01:05.040Z,101713.05
2019-01-15T00:02:09.870Z,101717.66
2019-01-15T00:03:14.453Z,101718.06
2019-01-15T00:04:19.689Z,101713.09
2019-01-15T00:05:24.515Z,101712.17
2019-01-15T00:06:29.689Z,101717.34
2019-01-15T00:07:34.501Z,101714.45
2019-01-15T00:08:40.118Z,101714.72
2019-01-15T00:09:45.748Z,101723.30
2019-01-15T00:10:50.678Z,101713.09
2019-01-15T00:11:56.373Z,101719.98
2019-01-15T00:13:01.595Z,101717.49
2019-01-15T00:14:06.550Z,101721.58
2019-01-15T00:15:11.497Z,101722.37
2019-01-15T00:16:16.659Z,101717.73
2019-01-15T00:17:21.888Z,101716.13
2019-01-15T00:18:27.862Z,101715.03
2019-01-15T00:19:32.752Z,101715.99
2019-01-15T00:20:37.888Z,101713.61
2019-01-15T00:21:42.469Z,101713.30
2019-01-15T00:22:47.380Z,101711.28
2019-01-15T00:23:52.750Z,101709.84
2019-01-15T00:24:57.933Z,101710.32
2019-01-15T00:26:02.909Z,101715.03
2019-01-15T00:27:07.934Z,101716.39
2019-01-15T00:28:12.478Z,101715.34
2019-01-15T00:29:18.013Z,101715.56
2019-01-15T00:30:22.961Z,101715.65
2019-01-15T00:31:28.262Z,101719.39
2019-01-15T00:32:33.052Z,101719.95
2019-01-15T00:33:37.934Z,101718.45
2019-01-15T00:34:42.756Z,101715.52
2019-01-15T00:35:47.553Z,101718.37
2019-01-15T00:36:52.405Z,101716.13
2019-01-15T00:37:57.643Z,101715.02
2019-01-15T00:39:02.922Z,101716.55
2019-01-15T00:40:11.335Z,101718.07
2019-01-15T00:41:16.146Z,101719.48
2019-01-15T00:42:20.717Z,101723.88
2019-01-15T00:44:46.825Z,101721.72
2019-01-15T00:45:52.026Z,101723.55
2019-01-15T00:46:57.625Z,101720.38
2019-01-15T00:48:02.488Z,101726.10
2019-01-15T00:49:07.058Z,101724.27
2019-01-15T00:50:13.280Z,101726.03
2019-01-15T00:51:18.811Z,101729.77
2019-01-15T00:52:23.808Z,101730.55
2019-01-15T00:53:29.115Z,101733.05
2019-01-15T00:54:34.205Z,101728.59
2019-01-15T00:55:39.019Z,101728.99
2019-01-15T00:56:43.590Z,101728.30
2019-01-15T00:57:48.419Z,101731.70
2019-01-15T00:58:55.482Z,101725.02
2019-01-15T01:00:02.991Z,101721.84
2019-01-15T01:01:07.807Z,101718.96
2019-01-15T01:02:13.012Z,101715.45
2019-01-15T01:03:18.262Z,101713.95
2019-01-15T01:04:23.503Z,101713.71
2019-01-15T01:05:28.398Z,101718.33
2019-01-15T01:06:33.574Z,101719.91
2019-01-15T01:07:38.464Z,101719.02
2019-01-15T01:08:43.467Z,101724.02
2019-01-15T01:09:48.701Z,101724.81
2019-01-15T01:10:53.985Z,101722.75
2019-01-15T01:11:59.826Z,101718.59
2019-01-15T01:13:04.688Z,101721.57
2019-01-15T01:14:09.904Z,101726.27
2019-01-15T01:15:15.844Z,101721.80
2019-01-15T01:16:20.652Z,101731.80
2019-01-15T01:17:25.633Z,101736.44
2019-01-15T01:18:31.421Z,101731.93
2019-01-15T01:19:36.606Z,101730.66
2019-01-15T01:20:42.212Z,101731.03
2019-01-15T01:21:47.555Z,101728.75
2019-01-15T01:22:53.101Z,101734.17
2019-01-15T01:23:58.269Z,101742.60
2019-01-15T01:25:03.843Z,101736.97
2019-01-15T01:26:08.713Z,101736.63
2019-01-15T01:27:13.525Z,101735.60
2019-01-15T01:28:19.402Z,101741.87
2019-01-15T01:29:24.245Z,101742.58
2019-01-15T01:30:28.790Z,101747.24
2019-01-15T01:31:33.646Z,101740.88
2019-01-15T01:32:38.246Z,101741.48
2019-01-15T01:33:43.046Z,101748.97
2019-01-15T01:34:48.244Z,101751.76
2019-01-15T01:35:54.125Z,101748.34
2019-01-15T01:36:58.937Z,101749.23
2019-01-15T01:38:03.858Z,101750.84
2019-01-15T01:39:09.052Z,101755.29
2019-01-15T01:40:16.232Z,101755.68
2019-01-15T01:41:24.159Z,101748.30
2019-01-15T01:42:29.632Z,101752.11
2019-01-15T01:43:34.965Z,101743.59
2019-01-15T01:44:40.137Z,101750.34
2019-01-15T01:45:45.073Z,101742.41
2019-01-15T01:46:50.813Z,101747.08
2019-01-15T01:47:57.010Z,101744.12
2019-01-15T01:49:02.214Z,101744.03
2019-01-15T01:50:07.465Z,101738.55
2019-01-15T01:51:12.319Z,101741.13
2019-01-15T01:52:17.261Z,101738.89
2019-01-15T01:53:22.617Z,101741.29
2019-01-15T01:54:36.718Z,101743.05
2019-01-15T01:55:41.969Z,101744.47
2019-01-15T01:56:47.267Z,101746.56
2019-01-15T01:57:52.489Z,101744.41
2019-01-15T01:58:58.248Z,101744.81
2019-01-15T02:00:02.828Z,101744.81
2019-01-15T02:01:08.145Z,101753.53
2019-01-15T02:02:14.015Z,101755.68
2019-01-15T02:03:19.243Z,101760.22
2019-01-15T02:04:24.771Z,101757.05
2019-01-15T02:05:29.852Z,101754.55
2019-01-15T02:06:34.435Z,101749.17
2019-01-15T02:07:39.710Z,101740.94
2019-01-15T02:08:44.922Z,101747.55
2019-01-15T02:09:50.225Z,101746.31
2019-01-15T02:10:55.181Z,101749.13
2019-01-15T02:12:00.680Z,101749.13
2019-01-15T02:13:05.861Z,101744.91
2019-01-15T02:14:10.815Z,101746.58
2019-01-15T02:15:17.253Z,101749.46
2019-01-15T02:16:22.138Z,101749.00
2019-01-15T02:17:27.402Z,101750.37
2019-01-15T02:18:32.303Z,101749.70
2019-01-15T02:19:37.192Z,101749.06
2019-01-15T02:20:42.456Z,101750.03
2019-01-15T02:21:47.345Z,101742.56
2019-01-15T02:22:52.373Z,101748.96
2019-01-15T02:23:56.907Z,101748.38
2019-01-15T02:25:01.703Z,101751.81
2019-01-15T02:26:06.621Z,101750.12
2019-01-15T02:27:13.670Z,101746.72
2019-01-15T02:28:18.900Z,101744.87
2019-01-15T02:29:23.848Z,101747.27
2019-01-15T02:30:28.796Z,101751.15
2019-01-15T02:31:33.999Z,101753.17
2019-01-15T02:32:39.243Z,101761.36
2019-01-15T02:33:44.534Z,101759.63
2019-01-15T02:34:49.765Z,101761.06
2019-01-15T02:35:54.595Z,101760.57
2019-01-15T02:36:59.540Z,101763.29
2019-01-15T02:38:04.360Z,101753.75
2019-01-15T02:39:09.266Z,101746.50
2019-01-15T02:40:14.206Z,101745.77
2019-01-15T02:41:19.079Z,101742.52
2019-01-15T02:42:23.973Z,101741.17
2019-01-15T02:43:28.936Z,101741.08
2019-01-15T02:44:34.568Z,101751.54
2019-01-15T02:45:40.293Z,101741.65
2019-01-15T02:46:45.690Z,101747.77
2019-01-15T02:47:51.343Z,101745.31
2019-01-15T02:48:56.580Z,101745.95
2019-01-15T02:50:01.424Z,101740.20
2019-01-15T02:51:06.349Z,101740.22
2019-01-15T02:52:11.509Z,101743.38
2019-01-15T02:53:16.679Z,101739.48
2019-01-15T02:54:22.330Z,101739.73
2019-01-15T02:55:27.170Z,101734.85
2019-01-15T02:56:32.087Z,101735.42
2019-01-15T02:57:37.141Z,101732.39
2019-01-15T02:58:42.321Z,101738.59
2019-01-15T02:59:47.250Z,101744.84
2019-01-15T03:15:09.567Z,101710.10
2019-01-15T03:16:14.404Z,101709.53
2019-01-15T03:17:19.247Z,101706.72
2019-01-15T03:18:24.195Z,101710.89
2019-01-15T03:19:29.438Z,101710.06
2019-01-15T03:20:33.953Z,101713.58
2019-01-15T03:21:39.271Z,101716.44
2019-01-15T03:22:43.918Z,101718.11
2019-01-15T03:23:49.648Z,101722.51
2019-01-15T03:24:54.721Z,101718.85
2019-01-15T03:25:59.836Z,101719.95
2019-01-15T03:27:05.126Z,101713.92
2019-01-15T03:28:10.016Z,101714.38
2019-01-15T03:29:16.060Z,101710.46
2019-01-15T03:30:22.828Z,101709.45
2019-01-15T03:31:27.696Z,101707.47
2019-01-15T03:32:32.490Z,101701.00
2019-01-15T03:33:37.727Z,101698.23
2019-01-15T03:34:42.547Z,101698.63
2019-01-15T03:35:48.085Z,101700.69
2019-01-15T03:36:53.429Z,101694.31
2019-01-15T03:37:59.904Z,101694.94
2019-01-15T03:39:06.898Z,101699.86
2019-01-15T03:40:15.589Z,101694.72
2019-01-15T03:41:21.927Z,101697.63
2019-01-15T03:42:26.920Z,101698.50
2019-01-15T03:43:32.141Z,101703.55
2019-01-15T03:44:37.382Z,101705.36
2019-01-15T03:45:42.662Z,101704.87
2019-01-15T03:46:47.671Z,101703.29
2019-01-15T03:47:54.293Z,101704.25
2019-01-15T03:48:59.202Z,101697.87
2019-01-15T03:50:04.073Z,101698.89
2019-01-15T03:51:08.954Z,101698.58
2019-01-15T03:52:13.855Z,101686.80
2019-01-15T03:53:19.173Z,101687.67
2019-01-15T03:54:23.983Z,101690.05
2019-01-15T03:55:28.859Z,101696.12
2019-01-15T03:56:33.665Z,101694.63
2019-01-15T03:57:38.513Z,101696.73
2019-01-15T03:58:43.535Z,101702.27
2019-01-15T03:59:48.405Z,101695.16
2019-01-15T04:00:53.512Z,101697.08
2019-01-15T04:01:58.458Z,101697.96
2019-01-15T04:03:03.757Z,101697.40
2019-01-15T04:04:08.952Z,101700.43
2019-01-15T04:05:14.397Z,101690.31
2019-01-15T04:06:19.198Z,101693.79
2019-01-15T04:07:24.239Z,101695.41
2019-01-15T04:08:29.067Z,101692.52
2019-01-15T04:09:34.335Z,101686.72
2019-01-15T04:10:38.948Z,101682.19
2019-01-15T04:11:43.766Z,101686.14
2019-01-15T04:12:48.963Z,101691.90
2019-01-15T04:13:54.174Z,101681.48
2019-01-15T04:14:59.423Z,101680.20
2019-01-15T04:16:04.250Z,101679.68
2019-01-15T04:17:09.544Z,101677.87
2019-01-15T04:18:15.001Z,101672.20
2019-01-15T04:19:20.241Z,101676.59
2019-01-15T04:20:25.072Z,101670.30
2019-01-15T04:21:30.342Z,101675.00
2019-01-15T04:22:35.548Z,101670.62
2019-01-15T04:23:40.847Z,101660.98
2019-01-15T04:24:45.644Z,101660.02
2019-01-15T04:25:50.889Z,101666.31
2019-01-15T04:26:58.067Z,101669.61
2019-01-15T04:28:03.430Z,101671.36
2019-01-15T04:29:09.071Z,101666.80
2019-01-15T04:30:19.279Z,101670.23
2019-01-15T04:31:24.438Z,101670.80
2019-01-15T04:32:29.800Z,101672.64
2019-01-15T04:33:35.341Z,101673.83
2019-01-15T04:34:40.214Z,101677.17
2019-01-15T04:35:45.582Z,101669.44
2019-01-15T04:36:51.043Z,101668.95
2019-01-15T04:37:56.137Z,101670.49
2019-01-15T04:39:01.546Z,101666.67
2019-01-15T04:40:06.542Z,101671.86
2019-01-15T04:41:11.885Z,101670.89
2019-01-15T04:42:16.723Z,101671.63
2019-01-15T04:43:21.888Z,101672.51
2019-01-15T04:44:27.091Z,101669.64
2019-01-15T04:45:32.104Z,101672.20
2019-01-15T04:46:36.934Z,101673.16
2019-01-15T04:47:42.208Z,101671.40
2019-01-15T04:48:47.467Z,101670.83
2019-01-15T04:49:52.668Z,101665.72
2019-01-15T04:50:57.555Z,101665.11
2019-01-15T04:52:02.532Z,101658.51
2019-01-15T04:53:07.347Z,101659.14
2019-01-15T04:54:13.217Z,101653.30
2019-01-15T04:55:18.095Z,101648.63
2019-01-15T04:56:23.870Z,101647.50
2019-01-15T04:57:29.656Z,101652.36
2019-01-15T04:58:34.946Z,101645.74
2019-01-15T04:59:40.326Z,101646.56
2019-01-15T05:00:45.215Z,101642.34
2019-01-15T05:01:50.488Z,101636.36
2019-01-15T05:02:57.971Z,101638.20
2019-01-15T05:04:03.260Z,101635.73
2019-01-15T05:05:08.470Z,101635.25
2019-01-15T05:06:13.381Z,101636.26
2019-01-15T05:07:18.376Z,101644.78
2019-01-15T05:08:23.644Z,101639.63
2019-01-15T05:09:28.927Z,101642.25
2019-01-15T05:10:34.156Z,101640.55
2019-01-15T05:11:39.526Z,101645.91
2019-01-15T05:12:44.992Z,101644.47
2019-01-15T05:13:50.319Z,101633.66
2019-01-15T05:14:55.518Z,101634.92
2019-01-15T05:16:00.324Z,101627.56
2019-01-15T05:17:05.128Z,101627.56
2019-01-15T05:18:09.983Z,101628.52
2019-01-15T05:19:15.107Z,101625.38
2019-01-15T05:20:19.810Z,101633.30
2019-01-15T05:21:26.834Z,101625.98
2019-01-15T05:22:32.129Z,101627.91
2019-01-15T05:23:37.637Z,101626.84
2019-01-15T05:24:43.625Z,101619.28
2019-01-15T05:25:48.556Z,101625.45
2019-01-15T05:26:56.535Z,101615.19
2019-01-15T05:28:01.496Z,101619.38
2019-01-15T05:29:06.771Z,101616.91
2019-01-15T05:30:15.242Z,101618.67
2019-01-15T05:31:20.521Z,101619.94
2019-01-15T05:32:25.561Z,101616.28
2019-01-15T05:33:30.880Z,101615.96
2019-01-15T05:34:36.213Z,101619.55
2019-01-15T05:35:41.537Z,101621.54
2019-01-15T05:36:46.855Z,101621.38
2019-01-15T05:37:51.518Z,101620.42
2019-01-15T05:38:56.938Z,101620.27
2019-01-15T05:40:02.281Z,101619.30
2019-01-15T05:41:07.053Z,101614.84
2019-01-15T05:42:11.954Z,101619.06
2019-01-15T05:43:19.117Z,101615.50
2019-01-15T05:44:24.000Z,101616.37
2019-01-15T05:45:39.375Z,101620.50
2019-01-15T05:46:44.574Z,101616.84
2019-01-15T05:47:49.919Z,101620.13
2019-01-15T05:48:54.822Z,101615.66
2019-01-15T05:49:59.661Z,101614.95
2019-01-15T05:51:11.924Z,101615.83
2019-01-15T05:52:17.156Z,101615.66
2019-01-15T05:53:22.038Z,101610.09
2019-01-15T05:54:26.972Z,101613.17
2019-01-15T05:55:32.576Z,101615.81
2019-01-15T05:56:37.429Z,101622.50
2019-01-15T05:57:42.702Z,101619.47
2019-01-15T05:58:47.269Z,101622.10
2019-01-15T05:59:52.688Z,101622.98
2019-01-15T06:00:57.603Z,101617.71
2019-01-15T06:02:02.525Z,101609.75
2019-01-15T06:03:07.078Z,101607.43
2019-01-15T06:04:11.629Z,101614.14
2019-01-15T06:05:16.860Z,101609.66
2019-01-15T06:06:22.109Z,101612.74
2019-01-15T06:07:33.502Z,101614.02
2019-01-15T06:08:33.493Z,101613.93
2019-01-15T06:09:38.363Z,101613.92
2019-01-15T06:10:43.622Z,101611.77
2019-01-15T06:11:48.792Z,101614.18
2019-01-15T06:12:55.095Z,101604.83
2019-01-15T06:13:59.900Z,101606.83
2019-01-15T06:15:05.068Z,101605.47
2019-01-15T06:16:09.987Z,101605.88
2019-01-15T06:17:14.537Z,101607.55
2019-01-15T06:18:19.407Z,101606.48
2019-01-15T06:19:24.222Z,101599.23
2019-01-15T06:20:29.811Z,101599.20
2019-01-15T06:21:34.656Z,101602.66
2019-01-15T06:22:39.502Z,101599.09
2019-01-15T06:23:44.863Z,101594.38
2019-01-15T06:24:49.384Z,101597.06
2019-01-15T06:25:55.085Z,101588.79
2019-01-15T06:27:00.240Z,101587.45
2019-01-15T06:28:04.783Z,101586.07
2019-01-15T06:29:09.856Z,101583.81
2019-01-15T06:30:15.233Z,101583.34
2019-01-15T06:31:20.164Z,101581.66
2019-01-15T06:32:24.966Z,101586.45
2019-01-15T06:33:29.768Z,101587.95
2019-01-15T06:34:34.419Z,101581.28
2019-01-15T06:35:38.947Z,101580.78
2019-01-15T06:36:44.134Z,101572.34
2019-01-15T06:37:48.731Z,101569.66
2019-01-15T06:38:53.750Z,101567.42
2019-01-15T06:39:59.389Z,101566.05
2019-01-15T06:41:04.184Z,101570.75
2019-01-15T06:42:08.831Z,101567.53
2019-01-15T06:43:13.356Z,101573.38
2019-01-15T06:44:18.908Z,101566.66
2019-01-15T06:45:24.518Z,101562.83
2019-01-15T06:46:29.491Z,101568.28
2019-01-15T06:47:34.449Z,101567.22
2019-01-15T06:48:39.410Z,101569.16
2019-01-15T06:49:44.026Z,101569.98
2019-01-15T06:50:49.588Z,101561.72
2019-01-15T06:51:54.238Z,101564.47
2019-01-15T06:52:59.972Z,101568.91
2019-01-15T06:54:05.235Z,101568.11
2019-01-15T06:55:11.776Z,101567.63
2019-01-15T06:56:17.032Z,101567.59
2019-01-15T06:57:21.943Z,101570.94
2019-01-15T06:58:27.260Z,101568.51
2019-01-15T06:59:31.790Z,101570.27
2019-01-15T07:00:37.155Z,101562.88
2019-01-15T07:01:42.363Z,101571.65
2019-01-15T07:02:47.369Z,101573.00
2019-01-15T07:03:54.571Z,101571.30
2019-01-15T07:05:02.051Z,101579.83
2019-01-15T07:06:06.790Z,101571.35
2019-01-15T07:07:12.165Z,101571.78
2019-01-15T07:08:17.393Z,101572.78
2019-01-15T07:09:24.693Z,101574.66
2019-01-15T07:10:37.279Z,101576.98
2019-01-15T07:11:41.846Z,101579.22
2019-01-15T07:12:46.693Z,101574.23
2019-01-15T07:13:56.995Z,101579.66
2019-01-15T07:14:58.588Z,101577.19
2019-01-15T07:16:03.413Z,101579.81
2019-01-15T07:17:08.808Z,101578.67
2019-01-15T07:18:13.652Z,101582.50
2019-01-15T07:19:18.195Z,101579.78
2019-01-15T07:20:22.824Z,101573.40
2019-01-15T07:21:28.125Z,101579.30
2019-01-15T07:22:32.918Z,101579.03
2019-01-15T07:23:37.807Z,101572.45
2019-01-15T07:24:42.672Z,101570.77
2019-01-15T07:25:47.916Z,101574.20
2019-01-15T07:26:53.164Z,101572.05
2019-01-15T07:27:58.103Z,101577.31
2019-01-15T07:29:03.416Z,101575.48
2019-01-15T07:30:12.598Z,101574.77
2019-01-15T07:31:17.455Z,101580.11
2019-01-15T07:32:22.039Z,101582.09
2019-01-15T07:33:28.695Z,101588.12
2019-01-15T07:34:33.301Z,101592.36
2019-01-15T07:35:39.155Z,101588.92
2019-01-15T07:36:44.385Z,101594.19
2019-01-15T07:37:49.758Z,101599.22
2019-01-15T07:38:54.657Z,101600.09
2019-01-15T07:39:59.830Z,101598.97
2019-01-15T07:41:06.607Z,101604.60
2019-01-15T07:42:12.336Z,101597.34
2019-01-15T07:43:17.868Z,101595.55
2019-01-15T07:44:23.614Z,101592.59
2019-01-15T07:45:28.630Z,101597.42
2019-01-15T07:46:34.046Z,101596.95
2019-01-15T07:47:38.712Z,101592.31
2019-01-15T07:48:43.913Z,101595.47
2019-01-15T07:49:48.809Z,101591.44
2019-01-15T07:50:56.603Z,101601.80
2019-01-15T07:52:01.585Z,101595.47
2019-01-15T07:53:07.310Z,101599.13
2019-01-15T07:54:12.240Z,101599.05
2019-01-15T07:55:18.020Z,101602.08
2019-01-15T07:56:23.207Z,101603.88
2019-01-15T07:57:29.001Z,101603.48
2019-01-15T07:58:34.265Z,101600.92
2019-01-15T07:59:39.606Z,101598.45
2019-01-15T08:00:44.762Z,101592.27
2019-01-15T08:01:50.453Z,101586.95
2019-01-15T08:02:56.481Z,101583.33
2019-01-15T08:04:01.311Z,101586.76
2019-01-15T08:05:06.589Z,101585.44
2019-01-15T08:06:11.597Z,101590.74
2019-01-15T08:07:17.037Z,101591.26
2019-01-15T08:08:21.855Z,101594.05
2019-01-15T08:09:26.794Z,101592.54
2019-01-15T08:10:31.679Z,101591.41
2019-01-15T08:11:37.690Z,101596.05
2019-01-15T08:12:42.932Z,101584.08
2019-01-15T08:13:47.777Z,101585.35
2019-01-15T08:14:52.958Z,101579.92
2019-01-15T08:15:57.917Z,101585.03
2019-01-15T08:17:03.513Z,101577.36
2019-01-15T08:18:08.117Z,101577.04
2019-01-15T08:19:13.633Z,101580.47
2019-01-15T08:20:19.085Z,101580.66
2019-01-15T08:21:24.569Z,101578.59
2019-01-15T08:22:29.458Z,101579.11
2019-01-15T08:23:34.867Z,101580.45
2019-01-15T08:24:39.469Z,101580.20
2019-01-15T08:25:45.388Z,101583.68
2019-01-15T08:26:50.729Z,101580.73
2019-01-15T08:27:55.757Z,101575.77
2019-01-15T08:29:00.291Z,101576.68
2019-01-15T08:30:06.231Z,101573.95
2019-01-15T08:31:10.768Z,101580.78
2019-01-15T08:32:16.106Z,101576.62
2019-01-15T08:33:21.400Z,101579.91
2019-01-15T08:34:27.161Z,101580.71
2019-01-15T08:35:32.449Z,101583.27
2019-01-15T08:36:37.669Z,101582.47
2019-01-15T08:37:42.533Z,101589.55
2019-01-15T08:38:47.691Z,101584.30
2019-01-15T08:39:54.965Z,101590.44
2019-01-15T08:40:59.974Z,101578.09
2019-01-15T08:42:04.851Z,101578.71
2019-01-15T08:43:10.105Z,101579.66
2019-01-15T08:44:19.151Z,101580.50
2019-01-15T08:45:21.993Z,101579.04
2019-01-15T08:46:26.924Z,101577.84
2019-01-15T08:47:33.853Z,101583.68
2019-01-15T08:48:39.158Z,101577.91
2019-01-15T08:49:44.601Z,101578.31
2019-01-15T08:50:51.806Z,101577.50
2019-01-15T08:51:56.438Z,101572.72
2019-01-15T08:53:01.362Z,101580.94
2019-01-15T08:54:06.580Z,101576.77
2019-01-15T08:55:11.335Z,101579.30
2019-01-15T08:56:16.355Z,101583.79
2019-01-15T08:57:21.324Z,101578.02
2019-01-15T08:58:25.874Z,101578.19
2019-01-15T08:59:31.121Z,101576.52
2019-01-15T09:00:36.645Z,101581.85
2019-01-15T09:01:41.645Z,101578.48
2019-01-15T09:02:46.476Z,101576.59
2019-01-15T09:03:51.735Z,101574.02
2019-01-15T09:04:56.615Z,101574.61
2019-01-15T09:06:01.567Z,101579.32
2019-01-15T09:07:06.704Z,101575.89
2019-01-15T09:08:11.243Z,101581.88
2019-01-15T09:09:16.539Z,101584.03
2019-01-15T09:10:21.855Z,101578.77
2019-01-15T09:11:26.704Z,101575.72
2019-01-15T09:12:31.842Z,101573.66
2019-01-15T09:13:36.688Z,101574.78
2019-01-15T09:14:41.961Z,101578.22
2019-01-15T09:15:46.459Z,101584.05
2019-01-15T09:16:51.484Z,101585.81
2019-01-15T09:17:56.641Z,101583.25
2019-01-15T09:19:01.819Z,101582.70
2019-01-15T09:20:08.422Z,101584.77
2019-01-15T09:21:13.662Z,101582.64
2019-01-15T09:22:18.978Z,101584.39
2019-01-15T09:23:23.851Z,101584.59
2019-01-15T09:24:29.039Z,101589.82
2019-01-15T09:25:34.277Z,101582.21
2019-01-15T09:26:39.167Z,101591.91
2019-01-15T09:27:43.747Z,101592.85
2019-01-15T09:28:48.949Z,101589.66
2019-01-15T09:29:54.161Z,101590.20
2019-01-15T09:30:58.990Z,101583.96
2019-01-15T09:32:04.304Z,101585.15
2019-01-15T09:33:08.829Z,101588.34
2019-01-15T09:34:13.781Z,101588.75
2019-01-15T09:35:19.016Z,101584.67
2019-01-15T09:36:24.533Z,101588.69
2019-01-15T09:37:29.382Z,101584.55
2019-01-15T09:38:34.857Z,101591.14
2019-01-15T09:39:40.112Z,101582.66
2019-01-15T09:40:45.032Z,101582.36
2019-01-15T09:41:50.132Z,101589.63
2019-01-15T09:42:55.863Z,101587.17
2019-01-15T09:44:00.878Z,101589.63
2019-01-15T09:45:05.636Z,101594.22
2019-01-15T09:46:10.401Z,101586.67
2019-01-15T09:47:17.143Z,101583.16
2019-01-15T09:48:25.906Z,101583.42
2019-01-15T09:49:31.015Z,101582.48
2019-01-15T09:50:35.810Z,101584.44
2019-01-15T09:51:41.450Z,101585.95
2019-01-15T09:52:46.962Z,101587.17
2019-01-15T09:53:51.835Z,101582.05
2019-01-15T09:54:56.708Z,101594.01
2019-01-15T09:56:01.959Z,101592.66
2019-01-15T09:57:06.790Z,101591.31
2019-01-15T09:58:11.330Z,101598.52
2019-01-15T09:59:16.565Z,101595.86
2019-01-15T10:00:21.515Z,101586.67
2019-01-15T10:01:26.339Z,101586.56
2019-01-15T10:02:31.480Z,101577.94
2019-01-15T10:03:35.999Z,101583.22
2019-01-15T10:04:41.664Z,101582.31
2019-01-15T10:05:46.688Z,101581.06
2019-01-15T10:06:52.048Z,101581.24
2019-01-15T10:07:57.181Z,101575.38
2019-01-15T10:09:02.046Z,101575.48
2019-01-15T10:10:08.668Z,101570.59
2019-01-15T10:11:13.482Z,101573.56
2019-01-15T10:12:18.789Z,101570.59
2019-01-15T10:13:23.997Z,101568.03
2019-01-15T10:14:28.941Z,101561.22
2019-01-15T10:15:33.553Z,101572.00
2019-01-15T10:16:38.387Z,101570.80
2019-01-15T10:17:43.681Z,101561.77
2019-01-15T10:18:48.393Z,101569.04
2019-01-15T10:19:53.661Z,101565.67
2019-01-15T10:21:01.344Z,101567.11
2019-01-15T10:22:06.517Z,101562.27
2019-01-15T10:23:11.806Z,101564.55
2019-01-15T10:24:16.721Z,101562.09
2019-01-15T10:25:25.404Z,101555.34
2019-01-15T10:26:30.894Z,101558.13
2019-01-15T10:27:38.187Z,101564.06
2019-01-15T10:28:42.982Z,101560.83
2019-01-15T10:29:48.863Z,101558.77
2019-01-15T10:31:34.019Z,101559.55
2019-01-15T10:32:50.791Z,101556.11
2019-01-15T10:34:13.721Z,101559.55
2019-01-15T10:35:43.075Z,101554.17
2019-01-15T10:36:45.904Z,101549.11
2019-01-15T10:37:50.864Z,101555.14
2019-01-15T10:38:56.372Z,101550.55
2019-01-15T10:40:03.919Z,101547.42
2019-01-15T10:41:09.380Z,101540.30
2019-01-15T10:42:14.748Z,101542.93
2019-01-15T10:43:25.365Z,101535.87
2019-01-15T10:44:30.323Z,101540.74
2019-01-15T10:45:36.601Z,101546.68
2019-01-15T10:46:41.542Z,101537.62
2019-01-15T10:47:46.907Z,101538.30
2019-01-15T10:48:55.760Z,101538.05
2019-01-15T10:50:01.240Z,101536.17
2019-01-15T10:51:06.615Z,101537.67
2019-01-15T10:52:12.616Z,101541.98
2019-01-15T10:53:18.086Z,101538.20
2019-01-15T10:54:26.126Z,101535.45
2019-01-15T10:55:31.356Z,101534.52
2019-01-15T10:56:36.262Z,101527.97
2019-01-15T10:57:41.151Z,101532.41
2019-01-15T10:58:48.989Z,101535.79
2019-01-15T10:59:55.616Z,101527.92
2019-01-15T11:01:06.019Z,101520.48
2019-01-15T11:02:11.245Z,101533.11
2019-01-15T11:03:16.311Z,101527.10
2019-01-15T11:04:24.021Z,101524.54
2019-01-15T11:05:32.665Z,101524.54
2019-01-15T11:06:38.201Z,101517.31
2019-01-15T11:07:43.994Z,101519.66
2019-01-15T11:08:49.832Z,101514.32
2019-01-15T11:09:57.148Z,101518.28
2019-01-15T11:11:06.476Z,101513.58
2019-01-15T11:12:12.711Z,101524.14
2019-01-15T11:13:18.831Z,101517.30
2019-01-15T11:14:25.806Z,101513.50
2019-01-15T11:15:30.987Z,101513.72
2019-01-15T11:16:39.023Z,101509.73
2019-01-15T11:17:44.369Z,101512.38
2019-01-15T11:18:55.855Z,101504.63
2019-01-15T11:20:01.171Z,101510.63
2019-01-15T11:21:06.149Z,101509.27
2019-01-15T11:22:12.584Z,101504.81
2019-01-15T11:23:17.104Z,101507.72
2019-01-15T11:24:22.108Z,101505.56
2019-01-15T11:25:26.894Z,101501.72
2019-01-15T11:26:31.480Z,101507.72
2019-01-15T11:27:36.276Z,101498.14
2019-01-15T11:28:45.645Z,101505.42
2019-01-15T11:29:50.843Z,101506.30
2019-01-15T11:30:58.134Z,101502.06
2019-01-15T11:32:02.944Z,101504.63
2019-01-15T11:33:07.856Z,101506.56
2019-01-15T11:34:13.391Z,101503.12
2019-01-15T11:35:18.466Z,101506.77
2019-01-15T11:36:23.266Z,101505.63
2019-01-15T11:37:29.195Z,101507.78
2019-01-15T11:38:37.181Z,101504.55
2019-01-15T11:39:42.197Z,101494.81
2019-01-15T11:40:48.150Z,101509.62
2019-01-15T11:41:58.770Z,101505.89
2019-01-15T11:43:03.331Z,101506.77
2019-01-15T11:44:08.163Z,101499.07
2019-01-15T11:45:13.481Z,101497.05
2019-01-15T11:46:18.321Z,101499.16
2019-01-15T11:47:23.619Z,101503.98
2019-01-15T11:48:28.836Z,101499.28
2019-01-15T11:49:36.550Z,101503.86
2019-01-15T11:50:41.872Z,101493.55
2019-01-15T11:51:49.608Z,101492.98
2019-01-15T11:52:58.530Z,101487.77
2019-01-15T11:54:03.444Z,101497.16
2019-01-15T11:55:08.346Z,101487.33
2019-01-15T11:56:14.795Z,101489.82
2019-01-15T11:57:22.169Z,101487.61
2019-01-15T11:58:30.569Z,101495.00
2019-01-15T11:59:38.001Z,101503.52
2019-01-15T12:01:04.436Z,101496.11
2019-01-15T12:02:31.593Z,101496.49
2019-01-15T12:03:50.722Z,101491.86
2019-01-15T12:05:11.746Z,101497.41
2019-01-15T12:06:34.524Z,101491.92
2019-01-15T12:08:08.275Z,101505.22
2019-01-15T12:09:30.848Z,101489.30
2019-01-15T12:10:53.576Z,101493.75
2019-01-15T12:12:17.716Z,101495.02
2019-01-15T12:13:42.172Z,101491.19
2019-01-15T12:15:10.760Z,101489.70
2019-01-15T12:16:33.993Z,101497.39
2019-01-15T12:18:00.534Z,101497.04
2019-01-15T12:19:34.800Z,101502.98
2019-01-15T12:21:12.116Z,101491.85
2019-01-15T12:22:47.886Z,101486.91
2019-01-15T12:24:10.671Z,101493.05
2019-01-15T12:25:35.355Z,101492.59
2019-01-15T12:27:08.876Z,101491.39
2019-01-15T12:28:41.807Z,101484.16
2019-01-15T12:30:12.812Z,101479.33
2019-01-15T12:31:37.861Z,101479.80
2019-01-15T12:33:01.235Z,101473.49
2019-01-15T12:34:23.923Z,101467.89
2019-01-15T12:36:04.156Z,101475.70
2019-01-15T12:37:41.220Z,101474.89
2019-01-15T12:39:05.162Z,101476.01
2019-01-15T12:40:29.731Z,101468.44
2019-01-15T12:41:53.125Z,101470.02
2019-01-15T12:43:15.664Z,101471.28
2019-01-15T12:44:49.282Z,101468.20
2019-01-15T12:46:21.121Z,101464.51
2019-01-15T12:47:50.769Z,101463.11
2019-01-15T12:49:08.703Z,101463.06
2019-01-15T12:50:24.772Z,101463.22
2019-01-15T12:51:55.023Z,101461.12
2019-01-15T12:53:20.488Z,101463.58
2019-01-15T12:54:44.081Z,101461.99
2019-01-15T12:56:07.754Z,101464.03
2019-01-15T12:57:38.425Z,101466.00
2019-01-15T12:59:08.495Z,101465.52